createdAt,value
2022-11-02T00:01:47.757Z,8.35
2022-11-02T00:04:15.893Z,7.32
2022-11-02T00:06:44.906Z,5.95
2022-11-02T00:09:12.793Z,6.50
2022-11-02T00:11:41.143Z,7.93
2022-11-02T00:14:09.036Z,7.00
2022-11-02T00:16:40.078Z,7.18
2022-11-02T00:19:09.339Z,7.38
2022-11-02T00:21:38.207Z,6.75
2022-11-02T00:24:06.731Z,7.40
2022-11-02T00:26:36.467Z,6.47
2022-11-02T00:29:06.285Z,6.90
2022-11-02T00:31:34.283Z,6.72
2022-11-02T00:34:02.068Z,7.00
2022-11-02T00:36:31.315Z,5.95
2022-11-02T00:38:58.875Z,6.88
2022-11-02T00:41:26.973Z,7.90
2022-11-02T00:43:55.106Z,7.72
2022-11-02T00:46:25.394Z,8.45
2022-11-02T00:48:54.056Z,9.40
2022-11-02T00:51:22.018Z,8.63
2022-11-02T00:53:50.051Z,8.57
2022-11-02T00:56:17.848Z,9.13
2022-11-02T00:58:45.874Z,8.82
2022-11-02T01:01:14.202Z,9.30
2022-11-02T01:03:41.836Z,8.98
2022-11-02T01:06:12.952Z,7.65
2022-11-02T01:08:41.207Z,7.97
2022-11-02T01:11:13.253Z,8.80
2022-11-02T01:13:42.422Z,8.43
2022-11-02T01:16:11.762Z,8.77
2022-11-02T01:18:40.308Z,8.15
2022-11-02T01:21:08.213Z,8.90
2022-11-02T01:23:37.444Z,8.05
2022-11-02T01:26:09.863Z,8.48
2022-11-02T01:28:38.023Z,9.05
2022-11-02T01:31:07.519Z,8.55
2022-11-02T01:33:35.948Z,8.32
2022-11-02T01:36:06.216Z,9.25
2022-11-02T01:38:34.603Z,7.95
2022-11-02T01:41:02.335Z,8.30
2022-11-02T01:43:33.020Z,8.02
2022-11-02T01:46:12.972Z,8.48
2022-11-02T01:48:46.501Z,8.35
2022-11-02T01:53:48.132Z,8.18
2022-11-02T01:56:20.287Z,8.40
2022-11-02T01:58:55.057Z,8.63
2022-11-02T02:01:23.783Z,9.85
2022-11-02T02:03:54.148Z,10.30
2022-11-02T02:06:22.319Z,9.93
2022-11-02T02:08:52.136Z,10.50
2022-11-02T02:11:30.029Z,11.43
2022-11-02T02:14:18.638Z,9.82
2022-11-02T02:17:06.248Z,10.18
2022-11-02T02:19:55.651Z,9.23
2022-11-02T02:22:36.061Z,10.05
2022-11-02T02:25:22.378Z,9.10
2022-11-02T02:28:19.841Z,10.23
2022-11-02T02:30:55.679Z,9.43
2022-11-02T02:33:41.030Z,9.48
2022-11-02T02:36:17.794Z,8.95
2022-11-02T02:39:00.167Z,8.40
2022-11-02T02:41:39.579Z,9.25
2022-11-02T02:44:20.932Z,9.02
2022-11-02T02:46:56.441Z,8.50
2022-11-02T02:49:38.413Z,9.00
2022-11-02T02:52:07.800Z,9.00
2022-11-02T02:54:41.159Z,8.38
2022-11-02T02:57:16.750Z,8.77
2022-11-02T02:59:48.594Z,8.52
2022-11-02T03:02:27.516Z,8.13
2022-11-02T03:04:55.264Z,8.80
2022-11-02T03:07:33.752Z,8.35
2022-11-02T03:10:28.369Z,8.52
2022-11-02T03:13:02.380Z,9.35
2022-11-02T03:15:41.724Z,8.73
2022-11-02T03:18:33.457Z,10.20
2022-11-02T03:21:27.101Z,9.35
2022-11-02T03:24:07.428Z,9.25
2022-11-02T03:27:15.614Z,9.55
2022-11-02T03:30:04.289Z,7.75
2022-11-02T03:33:07.018Z,8.23
2022-11-02T03:35:51.395Z,8.68
2022-11-02T03:38:32.779Z,8.65
2022-11-02T03:41:03.390Z,8.65
2022-11-02T03:43:36.126Z,8.98
2022-11-02T03:46:06.744Z,8.77
2022-11-02T03:48:54.932Z,8.75
2022-11-02T03:51:25.710Z,8.48
2022-11-02T03:53:59.274Z,8.57
2022-11-02T03:56:39.992Z,8.63
2022-11-02T03:59:09.219Z,8.35
2022-11-02T04:01:50.005Z,8.85
2022-11-02T04:04:19.221Z,7.82
2022-11-02T04:06:48.462Z,7.72
2022-11-02T04:09:17.170Z,8.43
2022-11-02T04:12:11.313Z,8.70
2022-11-02T04:14:57.402Z,9.07
2022-11-02T04:18:05.340Z,8.82
2022-11-02T04:20:53.631Z,9.20
2022-11-02T04:23:57.749Z,9.48
2022-11-02T04:26:43.579Z,7.90
2022-11-02T04:29:34.588Z,9.15
2022-11-02T04:32:05.188Z,9.40
2022-11-02T04:34:59.641Z,8.82
2022-11-02T04:37:59.065Z,9.32
2022-11-02T04:40:29.118Z,8.48
2022-11-02T04:43:00.315Z,9.18
2022-11-02T04:45:38.033Z,8.63
2022-11-02T04:48:24.198Z,9.27
2022-11-02T04:50:55.280Z,10.77
2022-11-02T04:53:46.116Z,8.95
2022-11-02T04:56:22.668Z,9.80
2022-11-02T04:59:17.475Z,9.68
2022-11-02T05:01:48.005Z,8.95
2022-11-02T05:04:38.473Z,8.95
2022-11-02T05:07:08.677Z,9.60
2022-11-02T05:09:38.327Z,9.98
2022-11-02T05:12:09.814Z,8.90
2022-11-02T05:14:41.206Z,9.00
2022-11-02T05:17:16.327Z,9.13
2022-11-02T05:19:52.584Z,12.75
2022-11-02T05:22:24.147Z,10.00
2022-11-02T05:24:59.481Z,12.35
2022-11-02T05:27:53.356Z,13.27
2022-11-02T05:33:20.650Z,14.70
2022-11-02T05:35:57.639Z,17.10
2022-11-02T05:41:26.641Z,18.42
2022-11-02T05:44:19.521Z,15.82
2022-11-02T05:47:08.065Z,17.35
2022-11-02T05:49:56.182Z,12.75
2022-11-02T05:52:44.982Z,12.25
2022-11-02T05:55:13.563Z,14.77
2022-11-02T05:57:44.161Z,13.45
2022-11-02T06:00:38.995Z,14.90
2022-11-02T06:03:12.641Z,13.98
2022-11-02T06:06:21.359Z,14.20
2022-11-02T06:09:09.302Z,15.85
2022-11-02T06:12:02.257Z,13.60
2022-11-02T06:14:58.081Z,12.55
2022-11-02T06:17:25.877Z,14.80
2022-11-02T06:19:53.726Z,12.02
2022-11-02T06:22:21.317Z,13.25
2022-11-02T06:24:49.019Z,12.02
2022-11-02T06:27:16.920Z,11.57
2022-11-02T06:29:44.729Z,11.50
2022-11-02T06:32:12.627Z,11.60
2022-11-02T06:34:40.203Z,11.43
2022-11-02T06:37:07.993Z,11.45
2022-11-02T06:42:04.550Z,10.73
2022-11-02T06:44:32.234Z,11.63
2022-11-02T06:47:00.261Z,11.25
2022-11-02T06:49:28.152Z,10.40
2022-11-02T06:51:56.224Z,10.07
2022-11-02T06:54:24.211Z,10.82
2022-11-02T06:56:52.176Z,10.68
2022-11-02T06:59:19.967Z,10.25
2022-11-02T07:01:54.162Z,10.93
2022-11-02T07:04:22.478Z,10.95
2022-11-02T07:06:50.277Z,11.02
2022-11-02T07:09:18.275Z,11.43
2022-11-02T07:11:46.011Z,10.52
2022-11-02T07:14:14.155Z,9.82
2022-11-02T07:16:41.780Z,9.75
2022-11-02T07:19:09.467Z,10.68
2022-11-02T07:21:37.578Z,11.65
2022-11-02T07:24:05.754Z,9.98
2022-11-02T07:26:42.553Z,9.52
2022-11-02T07:29:09.960Z,9.40
2022-11-02T07:31:37.558Z,10.35
2022-11-02T07:34:05.375Z,8.25
2022-11-02T07:36:33.117Z,9.48
2022-11-02T07:39:00.766Z,8.55
2022-11-02T07:41:28.620Z,8.80
2022-11-02T07:43:56.322Z,7.60
2022-11-02T07:46:33.214Z,7.82
2022-11-02T07:49:01.086Z,8.35
2022-11-02T07:51:28.886Z,9.25
2022-11-02T07:53:56.607Z,7.60
2022-11-02T07:56:24.364Z,8.75
2022-11-02T07:58:51.919Z,8.38
2022-11-02T08:01:19.655Z,8.88
2022-11-02T08:03:48.148Z,10.10
2022-11-02T08:06:15.885Z,9.98
2022-11-02T08:08:43.601Z,9.65
2022-11-02T08:11:11.255Z,9.85
2022-11-02T08:13:39.055Z,10.77
2022-11-02T08:16:07.155Z,9.50
2022-11-02T08:18:34.880Z,10.40
2022-11-02T08:21:02.565Z,9.93
2022-11-02T08:23:30.364Z,8.90
2022-11-02T08:25:59.262Z,9.75
2022-11-02T08:28:32.021Z,9.23
2022-11-02T08:30:59.603Z,10.17
2022-11-02T08:33:28.391Z,9.77
2022-11-02T08:36:03.534Z,10.20
2022-11-02T08:38:31.894Z,11.32
2022-11-02T08:41:00.124Z,10.63
2022-11-02T08:43:28.046Z,9.90
2022-11-02T08:46:16.578Z,11.02
2022-11-02T08:48:45.404Z,11.57
2022-11-02T08:51:13.363Z,10.32
2022-11-02T08:53:41.174Z,10.55
2022-11-02T08:56:08.856Z,10.60
2022-11-02T08:58:36.620Z,11.05
2022-11-02T09:01:04.398Z,10.73
2022-11-02T09:03:32.246Z,10.82
2022-11-02T09:06:01.962Z,11.35
2022-11-02T09:08:30.255Z,12.45
2022-11-02T09:11:01.175Z,12.20
2022-11-02T09:13:29.575Z,12.15
2022-11-02T09:15:59.831Z,12.52
2022-11-02T09:18:28.033Z,12.82
2022-11-02T09:20:56.132Z,11.65
2022-11-02T09:23:24.000Z,11.38
2022-11-02T09:25:51.494Z,11.80
2022-11-02T09:28:19.589Z,11.85
2022-11-02T09:30:47.594Z,13.48
2022-11-02T09:33:15.661Z,13.20
2022-11-02T09:35:48.439Z,13.05
2022-11-02T09:38:18.647Z,14.32
2022-11-02T09:41:00.884Z,12.57
2022-11-02T09:43:32.831Z,13.68
2022-11-02T09:46:02.448Z,12.23
2022-11-02T09:48:43.808Z,13.75
2022-11-02T09:51:22.129Z,12.90
2022-11-02T09:54:18.236Z,12.85
2022-11-02T09:56:47.861Z,12.73
2022-11-02T09:59:21.652Z,11.80
2022-11-02T10:02:14.365Z,10.80
2022-11-02T10:04:48.176Z,12.05
2022-11-02T10:07:28.883Z,11.02
2022-11-02T10:09:58.848Z,12.27
2022-11-02T10:12:29.904Z,15.25
2022-11-02T10:15:05.772Z,14.20
2022-11-02T10:17:37.365Z,16.35
2022-11-02T10:20:20.537Z,16.50
2022-11-02T10:22:48.484Z,17.58
2022-11-02T10:25:17.346Z,17.27
2022-11-02T10:27:51.633Z,16.45
2022-11-02T10:30:21.493Z,17.33
2022-11-02T10:32:56.040Z,16.23
2022-11-02T10:39:31.297Z,15.85
2022-11-02T10:42:10.829Z,16.73
2022-11-02T10:44:41.252Z,15.45
2022-11-02T10:47:17.197Z,15.98
2022-11-02T10:50:11.881Z,14.80
2022-11-02T10:52:43.692Z,15.82
2022-11-02T10:55:54.525Z,15.35
2022-11-02T10:58:22.283Z,15.70
2022-11-02T11:01:01.871Z,14.65
2022-11-02T11:03:29.966Z,13.95
2022-11-02T11:06:00.664Z,14.75
2022-11-02T11:08:39.220Z,15.82
2022-11-02T11:11:27.156Z,15.18
2022-11-02T11:19:53.125Z,15.85
2022-11-02T11:25:13.772Z,15.15
2022-11-02T11:28:00.581Z,16.56
2022-11-02T11:30:58.462Z,15.32
2022-11-02T11:33:23.298Z,17.58
2022-11-02T11:35:51.790Z,17.42
2022-11-02T11:38:23.086Z,16.58
2022-11-02T11:40:55.252Z,15.07
2022-11-02T11:43:27.271Z,15.98
2022-11-02T11:46:06.589Z,15.73
2022-11-02T11:48:49.781Z,16.10
2022-11-02T11:51:31.829Z,17.17
2022-11-02T11:54:28.236Z,17.77
2022-11-02T11:56:58.723Z,17.13
2022-11-02T11:59:44.594Z,17.80
2022-11-02T12:02:31.832Z,18.85
2022-11-02T12:05:21.011Z,17.33
2022-11-02T12:08:18.860Z,17.67
2022-11-02T12:11:01.455Z,17.70
2022-11-02T12:14:11.378Z,15.63
2022-11-02T12:17:14.599Z,17.02
2022-11-02T12:20:03.905Z,16.70
2022-11-02T12:22:43.654Z,18.08
2022-11-02T12:25:20.402Z,19.80
2022-11-02T12:27:57.045Z,19.55
2022-11-02T12:30:42.345Z,19.70
2022-11-02T12:33:38.826Z,20.33
2022-11-02T12:37:26.101Z,19.33
2022-11-02T12:39:41.917Z,19.40
2022-11-02T12:42:34.975Z,19.55
2022-11-02T12:45:09.554Z,19.38
2022-11-02T12:47:57.828Z,20.13
2022-11-02T12:50:37.328Z,19.95
2022-11-02T12:53:26.233Z,18.48
2022-11-02T12:56:00.009Z,20.77
2022-11-02T12:58:32.986Z,19.55
2022-11-02T13:01:22.082Z,19.35
2022-11-02T13:04:02.092Z,19.63
2022-11-02T13:06:34.983Z,19.90
2022-11-02T13:09:12.285Z,19.92
2022-11-02T13:11:56.738Z,22.38
2022-11-02T13:14:27.410Z,19.55
2022-11-02T13:17:02.055Z,18.83
2022-11-02T13:19:38.844Z,20.25
2022-11-02T13:22:10.633Z,22.80
2022-11-02T13:24:43.963Z,21.95
2022-11-02T13:27:40.160Z,22.80
2022-11-02T13:30:16.985Z,25.27
2022-11-02T13:33:00.071Z,23.55
2022-11-02T13:35:36.195Z,24.48
2022-11-02T13:38:12.692Z,24.42
2022-11-02T13:40:48.187Z,24.38
2022-11-02T13:43:21.487Z,25.80
2022-11-02T13:45:57.345Z,23.88
2022-11-02T13:48:52.290Z,23.33
2022-11-02T13:51:29.884Z,23.08
2022-11-02T13:54:05.516Z,22.58
2022-11-02T13:59:43.040Z,23.77
2022-11-02T14:02:18.874Z,23.02
2022-11-02T14:04:48.679Z,22.15
2022-11-02T14:07:28.736Z,22.85
2022-11-02T14:10:07.342Z,21.02
2022-11-02T14:12:49.338Z,19.73
2022-11-02T14:15:17.260Z,20.23
2022-11-02T14:17:54.710Z,18.77
2022-11-02T14:20:46.773Z,17.02
2022-11-02T14:23:14.722Z,14.93
2022-11-02T14:25:45.519Z,15.93
2022-11-02T14:28:25.875Z,16.02
2022-11-02T14:31:05.606Z,14.48
2022-11-02T14:34:12.377Z,17.15
2022-11-02T14:37:08.433Z,16.25
2022-11-02T14:39:48.328Z,15.63
2022-11-02T14:42:47.366Z,14.82
2022-11-02T14:45:32.548Z,14.63
2022-11-02T14:48:04.083Z,13.95
2022-11-02T14:50:32.972Z,15.55
2022-11-02T14:53:05.678Z,14.85
2022-11-02T14:55:39.163Z,15.10
2022-11-02T14:58:11.265Z,18.13
2022-11-02T15:00:48.279Z,18.50
2022-11-02T15:03:24.964Z,17.20
2022-11-02T15:06:11.736Z,18.30
2022-11-02T15:08:56.253Z,19.60
2022-11-02T15:11:42.340Z,18.50
2022-11-02T15:14:31.672Z,17.63
2022-11-02T15:17:00.540Z,17.00
2022-11-02T15:20:10.046Z,16.50
2022-11-02T15:22:53.088Z,14.82
2022-11-02T15:25:29.499Z,17.23
2022-11-02T15:28:05.894Z,17.02
2022-11-02T15:30:40.912Z,17.65
2022-11-02T15:33:35.571Z,18.27
2022-11-02T15:36:06.443Z,19.23
2022-11-02T15:38:39.607Z,20.02
2022-11-02T15:41:28.334Z,19.55
2022-11-02T15:44:12.110Z,19.10
2022-11-02T15:47:02.940Z,20.65
2022-11-02T15:50:08.337Z,20.83
2022-11-02T15:53:22.195Z,19.63
2022-11-02T15:56:28.365Z,21.17
2022-11-02T15:59:29.486Z,20.52
2022-11-02T16:02:06.495Z,19.52
2022-11-02T16:04:37.715Z,22.40
2022-11-02T16:07:07.058Z,21.38
2022-11-02T16:09:37.614Z,22.73
2022-11-02T16:12:21.858Z,22.25
2022-11-02T16:14:58.981Z,22.23
2022-11-02T16:17:31.353Z,21.38
2022-11-02T16:20:10.977Z,21.10
2022-11-02T16:22:39.411Z,22.67
2022-11-02T16:25:19.835Z,22.42
2022-11-02T16:27:48.018Z,23.52
2022-11-02T16:30:23.259Z,22.30
2022-11-02T16:32:58.648Z,23.63
2022-11-02T16:35:27.594Z,23.30
2022-11-02T16:37:55.510Z,21.38
2022-11-02T16:40:24.328Z,18.88
2022-11-02T16:42:53.424Z,18.65
2022-11-02T16:45:37.075Z,18.00
2022-11-02T16:48:26.853Z,18.92
2022-11-02T16:51:28.263Z,16.45
2022-11-02T16:53:56.117Z,17.98
2022-11-02T16:56:29.423Z,16.30
2022-11-02T16:59:06.543Z,17.15
2022-11-02T17:01:37.809Z,15.65
2022-11-02T17:04:20.096Z,15.65
2022-11-02T17:06:49.972Z,16.38
2022-11-02T17:09:28.124Z,16.20
2022-11-02T17:12:05.341Z,15.50
2022-11-02T17:14:33.794Z,15.07
2022-11-02T17:17:05.189Z,14.75
2022-11-02T17:19:46.901Z,15.57
2022-11-02T17:22:24.160Z,14.90
2022-11-02T17:25:12.778Z,13.10
2022-11-02T17:27:42.759Z,14.40
2022-11-02T17:30:39.860Z,15.57
2022-11-02T17:33:24.895Z,14.73
2022-11-02T17:35:55.235Z,15.48
2022-11-02T17:38:27.569Z,16.65
2022-11-02T17:40:56.091Z,16.20
2022-11-02T17:43:24.325Z,15.93
2022-11-02T17:45:59.511Z,16.00
2022-11-02T17:48:31.352Z,16.88
2022-11-02T17:51:02.464Z,18.60
2022-11-02T17:53:33.721Z,17.55
2022-11-02T17:56:01.745Z,17.98
2022-11-02T17:58:29.606Z,18.67
2022-11-02T18:00:57.863Z,18.95
2022-11-02T18:03:31.097Z,18.75
2022-11-02T18:08:29.338Z,15.82
2022-11-02T18:10:57.694Z,17.80
2022-11-02T18:13:26.058Z,18.13
2022-11-02T18:15:54.307Z,17.98
2022-11-02T18:18:22.503Z,19.67
2022-11-02T18:20:53.278Z,17.92
2022-11-02T18:23:21.180Z,18.20
2022-11-02T18:25:49.364Z,20.27
2022-11-02T18:28:18.242Z,18.00
2022-11-02T18:30:46.051Z,18.20
2022-11-02T18:33:14.501Z,16.52
2022-11-02T18:35:42.838Z,16.98
2022-11-02T18:38:10.797Z,19.10
2022-11-02T18:40:38.518Z,16.15
2022-11-02T18:43:07.306Z,17.75
2022-11-02T18:45:35.543Z,17.73
2022-11-02T18:48:03.756Z,18.17
2022-11-02T18:50:32.428Z,17.25
2022-11-02T18:53:00.497Z,16.90
2022-11-02T18:55:28.641Z,16.42
2022-11-02T18:57:56.614Z,15.88
2022-11-02T19:00:24.532Z,16.60
2022-11-02T19:02:52.354Z,15.82
2022-11-02T19:05:39.124Z,15.55
2022-11-02T19:08:50.359Z,16.15
2022-11-02T19:11:18.285Z,18.42
2022-11-02T19:13:46.402Z,17.55
2022-11-02T19:16:14.607Z,16.83
2022-11-02T19:18:42.556Z,17.25
2022-11-02T19:21:10.564Z,17.40
2022-11-02T19:23:38.707Z,15.98
2022-11-02T19:26:06.731Z,17.95
2022-11-02T19:28:34.757Z,19.80
2022-11-02T19:31:06.672Z,19.55
2022-11-02T19:33:35.114Z,18.85
2022-11-02T19:36:03.155Z,19.02
2022-11-02T19:38:36.416Z,18.58
2022-11-02T19:41:10.823Z,17.77
2022-11-02T19:43:40.617Z,17.85
2022-11-02T19:46:21.092Z,17.63
2022-11-02T19:48:51.507Z,17.88
2022-11-02T19:51:24.859Z,18.48
2022-11-02T19:54:12.004Z,19.33
2022-11-02T19:56:40.034Z,17.52
2022-11-02T19:59:07.946Z,17.02
2022-11-02T20:01:40.426Z,16.98
2022-11-02T20:04:09.144Z,17.67
2022-11-02T20:06:38.383Z,14.25
2022-11-02T20:09:08.478Z,16.23
2022-11-02T20:11:37.584Z,16.02
2022-11-02T20:14:06.854Z,16.73
2022-11-02T20:16:34.896Z,17.80
2022-11-02T20:19:02.846Z,16.83
2022-11-02T20:21:35.613Z,18.70
2022-11-02T20:24:08.173Z,23.80
2022-11-02T20:26:39.200Z,16.90
2022-11-02T20:29:10.787Z,17.95
2022-11-02T20:31:42.422Z,18.27
2022-11-02T20:34:13.145Z,18.92
2022-11-02T20:36:41.386Z,17.23
2022-11-02T20:39:11.982Z,19.83
2022-11-02T20:41:40.759Z,20.05
2022-11-02T20:44:08.893Z,19.02
2022-11-02T20:46:42.009Z,19.73
2022-11-02T20:49:21.612Z,18.08
2022-11-02T20:51:58.811Z,19.00
2022-11-02T20:54:30.589Z,18.15
2022-11-02T20:56:58.999Z,17.95
2022-11-02T20:59:28.255Z,18.13
2022-11-02T21:01:56.284Z,17.50
2022-11-02T21:04:27.265Z,17.95
2022-11-02T21:06:55.070Z,17.70
2022-11-02T21:09:22.715Z,18.65
2022-11-02T21:12:09.922Z,20.08
2022-11-02T21:14:38.913Z,18.15
2022-11-02T21:17:08.227Z,17.88
2022-11-02T21:19:36.453Z,19.90
2022-11-02T21:22:05.005Z,19.40
2022-11-02T21:24:33.893Z,21.95
2022-11-02T21:27:01.951Z,21.83
2022-11-02T21:29:29.832Z,21.83
2022-11-02T21:31:57.632Z,21.92
2022-11-02T21:34:25.807Z,22.80
2022-11-02T21:36:53.707Z,24.38
2022-11-02T21:39:21.806Z,23.40
2022-11-02T21:41:49.822Z,22.70
2022-11-02T21:44:17.800Z,22.02
2022-11-02T21:46:45.652Z,21.75
2022-11-02T21:49:13.761Z,22.02
2022-11-02T21:51:42.968Z,23.83
2022-11-02T21:54:11.417Z,22.58
2022-11-02T21:56:39.739Z,22.75
2022-11-02T21:59:09.555Z,21.52
2022-11-02T22:01:50.418Z,22.25
2022-11-02T22:04:31.957Z,21.23
2022-11-02T22:07:01.436Z,22.33
2022-11-02T22:09:29.376Z,21.40
2022-11-02T22:12:16.242Z,20.75
2022-11-02T22:14:45.018Z,22.08
2022-11-02T22:17:22.088Z,20.40
2022-11-02T22:19:56.560Z,19.50
2022-11-02T22:22:24.372Z,22.83
2022-11-02T22:24:59.296Z,22.17
2022-11-02T22:27:27.795Z,21.50
2022-11-02T22:30:01.574Z,22.42
2022-11-02T22:32:29.343Z,24.20
2022-11-02T22:34:57.187Z,22.55
2022-11-02T22:37:43.457Z,23.13
2022-11-02T22:40:11.533Z,24.52
2022-11-02T22:42:41.554Z,23.77
2022-11-02T22:45:10.615Z,25.17
2022-11-02T22:47:38.287Z,23.92
2022-11-02T22:50:06.836Z,24.77
2022-11-02T22:52:34.842Z,25.80
2022-11-02T22:55:02.668Z,25.75
2022-11-02T22:57:30.497Z,25.15
2022-11-02T22:59:58.271Z,26.52
2022-11-02T23:02:26.187Z,25.35
2022-11-02T23:04:54.199Z,24.30
2022-11-02T23:07:22.020Z,24.50
2022-11-02T23:09:49.615Z,25.05
2022-11-02T23:12:17.669Z,24.52
2022-11-02T23:14:45.572Z,23.73
2022-11-02T23:17:13.398Z,24.90
2022-11-02T23:19:41.191Z,22.17
2022-11-02T23:22:30.868Z,24.00
2022-11-02T23:25:14.052Z,22.23
2022-11-02T23:28:01.527Z,21.63
2022-11-02T23:30:53.252Z,21.17
2022-11-02T23:33:22.838Z,21.48
2022-11-02T23:36:09.180Z,21.63
2022-11-02T23:38:56.592Z,21.08
2022-11-02T23:41:25.872Z,21.45
2022-11-02T23:44:11.961Z,22.17
2022-11-02T23:46:45.354Z,21.42
2022-11-02T23:49:13.657Z,21.73
2022-11-02T23:51:59.803Z,21.63
2022-11-02T23:54:46.039Z,22.73
2022-11-02T23:57:14.291Z,22.00
2022-11-02T23:59:42.260Z,21.65
